^^
Your Local Weather - Clay, NY Station Historical Data
Daily Summary for September 1, 2017 Units:  English    Metric   Both
« Previous Day
Next Day »
Daily Weekly Monthly Yearly Custom
  High: Low: Average:
Temperature: 61.6 °F 40.2 °F 50.8 °F
Dew Point: 48.3 °F 38.3 °F 43.1 °F
Humidity: 94% 49% 77%
Wind Speed: 5.0mph 0.0mph 1mph
Wind Gust: 8.0mph - -
Wind- - West
Pressure: 30.19 in 30.09 in -
Precipitation: 0.00 in    
Historical Graphs
 
 
Tabular Data for September 1, 2017
Time Temperature Dew Point Pressure Wind Wind Speed Wind Gust Humidity Rainfall Rate (Hourly) solar
00:00 45.9 °F 42.8 °F 30.09 in Calm   2.0 mph 89% 0.00 in 0 W/m2
00:06 45.9 °F 42.8 °F 30.09 in Calm   2.0 mph 89% 0.00 in 0 W/m2
00:12 45.7 °F 42.6 °F 30.09 in Calm     89% 0.00 in 0 W/m2
00:18 45.5 °F 42.4 °F 30.09 in Calm     89% 0.00 in 0 W/m2
00:24 45.3 °F 42.2 °F 30.09 in Calm     89% 0.00 in 0 W/m2
00:30 45.2 °F 42.2 °F 30.09 in Calm     89% 0.00 in 0 W/m2
00:36 45.0 °F 42.0 °F 30.09 in Calm     89% 0.00 in 0 W/m2
00:42 44.8 °F 41.8 °F 30.09 in Calm     89% 0.00 in 0 W/m2
00:48 44.6 °F 41.6 °F 30.09 in Calm     89% 0.00 in 0 W/m2
00:54 44.4 °F 41.4 °F 30.09 in Calm     89% 0.00 in 0 W/m2
01:00 44.3 °F 41.3 °F 30.09 in Calm     89% 0.00 in 0 W/m2
01:06 44.3 °F 41.3 °F 30.10 in Calm     89% 0.00 in 0 W/m2
01:12 44.3 °F 41.6 °F 30.10 in Calm     90% 0.00 in 0 W/m2
01:18 44.4 °F 41.7 °F 30.10 in Calm     90% 0.00 in 0 W/m2
01:24 44.4 °F 41.7 °F 30.10 in Calm     90% 0.00 in 0 W/m2
01:30 44.2 °F 41.5 °F 30.10 in Calm     90% 0.00 in 0 W/m2
01:36 44.0 °F 41.3 °F 30.10 in Calm     90% 0.00 in 0 W/m2
01:42 44.0 °F 41.3 °F 30.10 in Calm     90% 0.00 in 0 W/m2
01:48 44.0 °F 41.3 °F 30.10 in Calm     90% 0.00 in 0 W/m2
01:54 44.0 °F 41.3 °F 30.10 in Calm     90% 0.00 in 0 W/m2
02:00 43.8 °F 41.1 °F 30.10 in Calm     90% 0.00 in 0 W/m2
02:06 43.8 °F 41.1 °F 30.09 in Calm     90% 0.00 in 0 W/m2
02:12 43.6 °F 40.9 °F 30.10 in Calm     90% 0.00 in 0 W/m2
02:18 43.6 °F 41.1 °F 30.10 in Calm     91% 0.00 in 0 W/m2
02:24 43.5 °F 41.0 °F 30.10 in Calm     91% 0.00 in 0 W/m2
02:30 43.4 °F 40.9 °F 30.10 in Calm     91% 0.00 in 0 W/m2
02:36 43.3 °F 40.8 °F 30.10 in Calm     91% 0.00 in 0 W/m2
02:42 43.3 °F 40.8 °F 30.10 in Calm     91% 0.00 in 0 W/m2
02:48 43.3 °F 40.8 °F 30.10 in Calm     91% 0.00 in 0 W/m2
02:54 43.3 °F 40.8 °F 30.10 in Calm     91% 0.00 in 0 W/m2
03:00 43.2 °F 40.8 °F 30.10 in Calm     91% 0.00 in 0 W/m2
03:06 43.0 °F 40.6 °F 30.10 in Calm     91% 0.00 in 0 W/m2
03:12 42.9 °F 40.5 °F 30.10 in Calm     91% 0.00 in 0 W/m2
03:18 42.8 °F 40.6 °F 30.10 in Calm     92% 0.00 in 0 W/m2
03:24 42.7 °F 40.5 °F 30.10 in Calm     92% 0.00 in 0 W/m2
03:30 42.6 °F 40.4 °F 30.10 in Calm     92% 0.00 in 0 W/m2
03:36 42.5 °F 40.3 °F 30.10 in Calm     92% 0.00 in 0 W/m2
03:42 42.4 °F 40.2 °F 30.10 in Calm     92% 0.00 in 0 W/m2
03:48 42.2 °F 40.0 °F 30.10 in Calm     92% 0.00 in 0 W/m2
03:54 42.2 °F 40.0 °F 30.10 in Calm     92% 0.00 in 0 W/m2
04:00 42.1 °F 39.9 °F 30.10 in Calm     92% 0.00 in 0 W/m2
04:06 42.0 °F 39.8 °F 30.10 in Calm     92% 0.00 in 0 W/m2
04:12 42.1 °F 39.9 °F 30.11 in Calm     92% 0.00 in 0 W/m2
04:18 41.9 °F 39.7 °F 30.11 in Calm     92% 0.00 in 0 W/m2
04:24 41.8 °F 39.6 °F 30.11 in Calm     92% 0.00 in 0 W/m2
04:30 41.7 °F 39.5 °F 30.11 in Calm     92% 0.00 in 0 W/m2
04:36 41.6 °F 39.4 °F 30.12 in Calm     92% 0.00 in 0 W/m2
04:42 41.4 °F 39.3 °F 30.12 in Calm     92% 0.00 in 0 W/m2
04:48 41.3 °F 39.2 °F 30.12 in Calm     92% 0.00 in 0 W/m2
04:54 41.3 °F 39.2 °F 30.12 in Calm     92% 0.00 in 0 W/m2
05:00 41.1 °F 39.0 °F 30.13 in Calm     92% 0.00 in 0 W/m2
05:06 40.9 °F 38.8 °F 30.13 in Calm     92% 0.00 in 0 W/m2
05:12 40.7 °F 38.6 °F 30.13 in Calm     92% 0.00 in 0 W/m2
05:18 40.8 °F 38.7 °F 30.13 in Calm     92% 0.00 in 0 W/m2
05:24 40.9 °F 38.8 °F 30.13 in Calm     92% 0.00 in 0 W/m2
05:30 40.9 °F 38.8 °F 30.13 in Calm     92% 0.00 in 0 W/m2
05:36 40.6 °F 38.5 °F 30.13 in Calm     92% 0.00 in 0 W/m2
05:42 40.4 °F 38.3 °F 30.13 in Calm     92% 0.00 in 0 W/m2
05:48 40.4 °F 38.3 °F 30.13 in Calm     92% 0.00 in 0 W/m2
05:54 40.5 °F 38.4 °F 30.14 in Calm     92% 0.00 in 0 W/m2
06:00 40.4 °F 38.3 °F 30.14 in Calm     92% 0.00 in 0 W/m2
06:06 40.5 °F 38.6 °F 30.14 in Calm     93% 0.00 in 0 W/m2
06:12 40.4 °F 38.5 °F 30.14 in Calm     93% 0.00 in 0 W/m2
06:18 40.4 °F 38.5 °F 30.14 in Calm     93% 0.00 in 0 W/m2
06:24 40.4 °F 38.5 °F 30.14 in Calm     93% 0.00 in 0 W/m2
06:30 40.2 °F 38.3 °F 30.15 in Calm     93% 0.00 in 9 W/m2
06:36 40.2 °F 38.3 °F 30.16 in Calm     93% 0.00 in 14 W/m2
06:42 40.4 °F 38.5 °F 30.16 in Calm     93% 0.00 in 14 W/m2
06:48 40.8 °F 38.9 °F 30.16 in Calm     93% 0.00 in 32 W/m2
06:54 41.2 °F 39.3 °F 30.16 in Calm     93% 0.00 in 35 W/m2
07:00 42.0 °F 40.1 °F 30.16 in Calm     93% 0.00 in 33 W/m2
07:06 42.9 °F 41.3 °F 30.16 in Calm     94% 0.00 in 42 W/m2
07:12 43.4 °F 41.8 °F 30.16 in Calm     94% 0.00 in 39 W/m2
07:18 43.6 °F 42.0 °F 30.16 in Calm     94% 0.00 in 42 W/m2
07:24 43.8 °F 41.9 °F 30.16 in Calm     93% 0.00 in 51 W/m2
07:30 44.0 °F 42.1 °F 30.16 in Calm     93% 0.00 in 79 W/m2
07:36 44.8 °F 43.2 °F 30.16 in Calm     94% 0.00 in 151 W/m2
07:42 45.6 °F 44.0 °F 30.16 in Calm     94% 0.00 in 83 W/m2
07:48 46.2 °F 44.6 °F 30.16 in Calm     94% 0.00 in 70 W/m2
07:54 46.6 °F 45.0 °F 30.16 in Calm   1.0 mph 94% 0.00 in 72 W/m2
08:00 47.3 °F 45.7 °F 30.16 in Calm   2.0 mph 94% 0.00 in 83 W/m2
08:06 47.9 °F 46.0 °F 30.16 in North 1.0 mph 2.0 mph 93% 0.00 in 120 W/m2
08:12 48.7 °F 46.5 °F 30.16 in North 2.0 mph 2.0 mph 92% 0.00 in 100 W/m2
08:18 49.2 °F 46.1 °F 30.16 in NW 2.0 mph 2.0 mph 89% 0.00 in 127 W/m2
08:24 49.7 °F 45.7 °F 30.16 in NW 2.0 mph 4.0 mph 86% 0.00 in 116 W/m2
08:30 50.0 °F 45.0 °F 30.16 in North 2.0 mph 2.0 mph 83% 0.00 in 100 W/m2
08:36 50.3 °F 45.0 °F 30.16 in NNW 2.0 mph 3.0 mph 82% 0.00 in 91 W/m2
08:42 50.7 °F 45.4 °F 30.17 in NW 2.0 mph 3.0 mph 82% 0.00 in 237 W/m2
08:48 51.2 °F 45.2 °F 30.17 in NW 2.0 mph 4.0 mph 80% 0.00 in 144 W/m2
08:54 51.7 °F 45.7 °F 30.17 in North 2.0 mph 3.0 mph 80% 0.00 in 141 W/m2
09:00 51.9 °F 45.3 °F 30.17 in NNW 2.0 mph 2.0 mph 78% 0.00 in 236 W/m2
09:06 52.3 °F 45.6 °F 30.17 in WNW 3.0 mph 3.0 mph 78% 0.00 in 155 W/m2
09:12 52.5 °F 45.8 °F 30.17 in North 2.0 mph 3.0 mph 78% 0.00 in 118 W/m2
09:18 52.5 °F 45.8 °F 30.17 in WNW 2.0 mph 4.0 mph 78% 0.00 in 209 W/m2
09:24 52.9 °F 46.9 °F 30.17 in NNE 2.0 mph 4.0 mph 80% 0.00 in 209 W/m2
09:30 53.2 °F 46.5 °F 30.17 in NW 2.0 mph 2.0 mph 78% 0.00 in 367 W/m2
09:36 53.4 °F 46.7 °F 30.18 in NW 2.0 mph 3.0 mph 78% 0.00 in 246 W/m2
09:42 53.8 °F 46.4 °F 30.17 in North 1.0 mph 2.0 mph 76% 0.00 in 244 W/m2
09:48 53.9 °F 46.5 °F 30.17 in NW 2.0 mph 3.0 mph 76% 0.00 in 272 W/m2
09:54 54.6 °F 45.8 °F 30.17 in ENE 2.0 mph 3.0 mph 72% 0.00 in 612 W/m2
10:00 55.5 °F 46.6 °F 30.18 in NW 1.0 mph 1.0 mph 72% 0.00 in 749 W/m2
10:06 55.1 °F 45.5 °F 30.18 in North 1.0 mph 2.0 mph 70% 0.00 in 332 W/m2
10:12 55.1 °F 46.2 °F 30.18 in North 2.0 mph 3.0 mph 72% 0.00 in 496 W/m2
10:18 55.9 °F 48.1 °F 30.18 in NNW 4.0 mph 6.0 mph 75% 0.00 in 684 W/m2
10:24 57.2 °F 48.3 °F 30.18 in West 2.0 mph 4.0 mph 72% 0.00 in 497 W/m2
10:30 57.3 °F 47.2 °F 30.19 in WNW 1.0 mph 1.0 mph 69% 0.00 in 190 W/m2
10:36 56.9 °F 47.2 °F 30.19 in WNW 1.0 mph 1.0 mph 70% 0.00 in 243 W/m2
10:42 56.8 °F 46.7 °F 30.18 in North 1.0 mph 7.0 mph 69% 0.00 in 374 W/m2
10:48 56.7 °F 46.3 °F 30.18 in WSW 2.0 mph 7.0 mph 68% 0.00 in 200 W/m2
10:54 57.2 °F 47.5 °F 30.18 in NW 2.0 mph 2.0 mph 70% 0.00 in 791 W/m2
11:00 58.0 °F 48.3 °F 30.18 in NNW 2.0 mph 5.0 mph 70% 0.00 in 694 W/m2
11:06 57.9 °F 46.6 °F 30.18 in NNE 2.0 mph 5.0 mph 66% 0.00 in 659 W/m2
11:12 57.1 °F 44.6 °F 30.18 in NW 3.0 mph 5.0 mph 63% 0.00 in 202 W/m2
11:18 57.0 °F 46.1 °F 30.18 in NNW 2.0 mph 5.0 mph 67% 0.00 in 283 W/m2
11:24 57.6 °F 45.1 °F 30.18 in NNW 2.0 mph 5.0 mph 63% 0.00 in 773 W/m2
11:30 58.8 °F 45.4 °F 30.18 in North 3.0 mph 5.0 mph 61% 0.00 in 332 W/m2
11:36 57.7 °F 45.2 °F 30.18 in NW 4.0 mph 5.0 mph 63% 0.00 in 647 W/m2
11:42 57.7 °F 46.0 °F 30.17 in North 3.0 mph 4.0 mph 65% 0.00 in 283 W/m2
11:48 58.9 °F 45.5 °F 30.17 in West 2.0 mph 4.0 mph 61% 0.00 in 828 W/m2
11:54 59.3 °F 47.5 °F 30.17 in NW 3.0 mph 6.0 mph 65% 0.00 in 786 W/m2
12:00 57.9 °F 44.1 °F 30.17 in NW 4.0 mph 4.0 mph 60% 0.00 in 276 W/m2
12:06 57.4 °F 44.1 °F 30.17 in NW 4.0 mph 5.0 mph 61% 0.00 in 265 W/m2
12:12 59.8 °F 44.5 °F 30.16 in NNW 3.0 mph 3.0 mph 57% 0.00 in 919 W/m2
12:18 59.4 °F 45.5 °F 30.16 in NW 3.0 mph 4.0 mph 60% 0.00 in 907 W/m2
12:24 59.1 °F 43.4 °F 30.16 in NNW 4.0 mph 8.0 mph 56% 0.00 in 860 W/m2
12:30 59.6 °F 44.8 °F 30.16 in NNW 4.0 mph 5.0 mph 58% 0.00 in 949 W/m2
12:36 58.9 °F 43.2 °F 30.16 in NW 5.0 mph 5.0 mph 56% 0.00 in 928 W/m2
12:42 60.3 °F 45.5 °F 30.16 in NNW 4.0 mph 8.0 mph 58% 0.00 in 940 W/m2
12:48 61.3 °F 43.5 °F 30.16 in West 2.0 mph 8.0 mph 52% 0.00 in 926 W/m2
12:54 60.7 °F 43.9 °F 30.16 in NNW 2.0 mph 4.0 mph 54% 0.00 in 942 W/m2
13:00 60.5 °F 42.8 °F 30.16 in NNW 3.0 mph 3.0 mph 52% 0.00 in 881 W/m2
13:06 61.2 °F 44.9 °F 30.16 in NW 3.0 mph 4.0 mph 55% 0.00 in 870 W/m2
13:12 60.8 °F 44.0 °F 30.16 in NNW 4.0 mph 4.0 mph 54% 0.00 in 896 W/m2
13:18 61.6 °F 43.8 °F 30.16 in North 3.0 mph 4.0 mph 52% 0.00 in 601 W/m2
13:24 61.0 °F 42.2 °F 30.16 in NNW 2.0 mph 3.0 mph 50% 0.00 in 763 W/m2
13:30 61.3 °F 44.5 °F 30.16 in NW 2.0 mph 2.0 mph 54% 0.00 in 610 W/m2
13:36 60.2 °F 41.0 °F 30.16 in NNW 3.0 mph 7.0 mph 49% 0.00 in 696 W/m2
13:42 59.7 °F 43.0 °F 30.16 in NNW 3.0 mph 4.0 mph 54% 0.00 in 422 W/m2
13:48 59.7 °F 43.5 °F 30.16 in North 2.0 mph 4.0 mph 55% 0.00 in 594 W/m2
13:54 59.4 °F 42.7 °F 30.16 in NW 3.0 mph 3.0 mph 54% 0.00 in 404 W/m2
14:00 60.0 °F 43.8 °F 30.16 in SW 2.0 mph 3.0 mph 55% 0.00 in 633 W/m2
14:06 60.1 °F 43.9 °F 30.16 in NNW 3.0 mph 4.0 mph 55% 0.00 in 513 W/m2
14:12 59.7 °F 46.2 °F 30.16 in NW 3.0 mph 4.0 mph 61% 0.00 in 533 W/m2
14:18 60.2 °F 43.5 °F 30.16 in West 2.0 mph 4.0 mph 54% 0.00 in 606 W/m2
14:24 60.4 °F 45.5 °F 30.16 in WNW 2.0 mph 3.0 mph 58% 0.00 in 768 W/m2
14:30 61.0 °F 45.2 °F 30.16 in NNW 2.0 mph 2.0 mph 56% 0.00 in 712 W/m2
14:36 60.8 °F 44.5 °F 30.15 in WNW 2.0 mph 3.0 mph 55% 0.00 in 686 W/m2
14:42 60.7 °F 43.9 °F 30.16 in NNW 2.0 mph 2.0 mph 54% 0.00 in 577 W/m2
14:48 60.6 °F 44.3 °F 30.15 in NNW 2.0 mph 3.0 mph 55% 0.00 in 654 W/m2
14:54 61.0 °F 46.6 °F 30.14 in NW 2.0 mph 2.0 mph 59% 0.00 in 575 W/m2
15:00 60.7 °F 44.4 °F 30.15 in West 1.0 mph 1.0 mph 55% 0.00 in 459 W/m2
15:06 61.4 °F 44.1 °F 30.15 in NNW 2.0 mph 3.0 mph 53% 0.00 in 643 W/m2
15:12 61.1 °F 42.8 °F 30.15 in NW 3.0 mph 4.0 mph 51% 0.00 in 645 W/m2
15:18 60.5 °F 44.2 °F 30.16 in NNW 4.0 mph 5.0 mph 55% 0.00 in 659 W/m2
15:24 61.5 °F 44.2 °F 30.15 in North 2.0 mph 4.0 mph 53% 0.00 in 751 W/m2
15:30 61.0 °F 42.7 °F 30.15 in NNE 3.0 mph 3.0 mph 51% 0.00 in 726 W/m2
15:36 61.2 °F 43.4 °F 30.15 in NW 3.0 mph 4.0 mph 52% 0.00 in 712 W/m2
15:42 61.1 °F 43.3 °F 30.15 in NW 3.0 mph 8.0 mph 52% 0.00 in 661 W/m2
15:48 60.8 °F 42.5 °F 30.15 in NNW 3.0 mph 8.0 mph 51% 0.00 in 619 W/m2
15:54 60.8 °F 43.6 °F 30.16 in North 3.0 mph 7.0 mph 53% 0.00 in 411 W/m2
16:00 60.0 °F 43.8 °F 30.16 in NNW 3.0 mph 3.0 mph 55% 0.00 in 503 W/m2
16:06 60.6 °F 44.3 °F 30.15 in North 2.0 mph 3.0 mph 55% 0.00 in 524 W/m2
16:12 60.7 °F 43.9 °F 30.15 in North 2.0 mph 2.0 mph 54% 0.00 in 401 W/m2
16:18 60.4 °F 43.7 °F 30.15 in NW 2.0 mph 2.0 mph 54% 0.00 in 348 W/m2
16:24 60.1 °F 42.9 °F 30.15 in NW 2.0 mph 3.0 mph 53% 0.00 in 422 W/m2
16:30 59.8 °F 45.4 °F 30.15 in NNW 3.0 mph 3.0 mph 59% 0.00 in 385 W/m2
16:36 60.4 °F 43.7 °F 30.15 in NW 3.0 mph 3.0 mph 54% 0.00 in 536 W/m2
16:42 60.6 °F 43.9 °F 30.15 in WSW 2.0 mph 2.0 mph 54% 0.00 in 373 W/m2
16:48 60.3 °F 42.6 °F 30.15 in NNW 1.0 mph 4.0 mph 52% 0.00 in 318 W/m2
16:54 60.2 °F 43.0 °F 30.15 in North 1.0 mph 2.0 mph 53% 0.00 in 345 W/m2
17:00 60.1 °F 42.4 °F 30.15 in NNE 1.0 mph 1.0 mph 52% 0.00 in 258 W/m2
17:06 59.5 °F 45.2 °F 30.15 in NW 2.0 mph 6.0 mph 59% 0.00 in 292 W/m2
17:12 60.1 °F 44.8 °F 30.15 in North 1.0 mph 2.0 mph 57% 0.00 in 276 W/m2
17:18 59.8 °F 44.5 °F 30.15 in NW 2.0 mph 4.0 mph 57% 0.00 in 309 W/m2
17:24 59.7 °F 42.5 °F 30.15 in NW 2.0 mph 3.0 mph 53% 0.00 in 209 W/m2
17:30 59.3 °F 43.1 °F 30.15 in NW 3.0 mph 3.0 mph 55% 0.00 in 225 W/m2
17:36 59.2 °F 42.6 °F 30.15 in NW 1.0 mph 3.0 mph 54% 0.00 in 232 W/m2
17:42 59.1 °F 42.5 °F 30.15 in WNW 1.0 mph 3.0 mph 54% 0.00 in 179 W/m2
17:48 58.8 °F 42.7 °F 30.15 in North 2.0 mph 3.0 mph 55% 0.00 in 118 W/m2
17:54 58.6 °F 42.9 °F 30.15 in North 1.0 mph 3.0 mph 56% 0.00 in 120 W/m2
18:00 58.5 °F 43.3 °F 30.15 in North 1.0 mph 3.0 mph 57% 0.00 in 123 W/m2
18:06 58.3 °F 43.1 °F 30.15 in North 1.0 mph 3.0 mph 57% 0.00 in 105 W/m2
18:12 58.0 °F 42.8 °F 30.15 in North 1.0 mph 1.0 mph 57% 0.00 in 97 W/m2
18:18 57.8 °F 43.1 °F 30.15 in North 1.0 mph 3.0 mph 58% 0.00 in 91 W/m2
18:24 57.5 °F 43.7 °F 30.15 in Calm   1.0 mph 60% 0.00 in 91 W/m2
18:30 57.5 °F 43.7 °F 30.15 in Calm     60% 0.00 in 79 W/m2
18:36 57.4 °F 43.6 °F 30.15 in Calm     60% 0.00 in 65 W/m2
18:42 57.2 °F 43.9 °F 30.15 in Calm   1.0 mph 61% 0.00 in 51 W/m2
18:48 57.0 °F 43.7 °F 30.15 in Calm   1.0 mph 61% 0.00 in 44 W/m2
18:54 56.8 °F 43.9 °F 30.15 in Calm     62% 0.00 in 35 W/m2
19:00 56.5 °F 44.0 °F 30.15 in Calm     63% 0.00 in 32 W/m2
19:06 56.2 °F 44.6 °F 30.15 in Calm     65% 0.00 in 21 W/m2
19:12 55.8 °F 45.0 °F 30.15 in Calm     67% 0.00 in 19 W/m2
19:18 55.4 °F 45.0 °F 30.15 in Calm     68% 0.00 in 16 W/m2
19:24 54.6 °F 45.8 °F 30.15 in Calm     72% 0.00 in 11 W/m2
19:30 53.7 °F 45.6 °F 30.15 in Calm     74% 0.00 in 5 W/m2
19:36 53.0 °F 46.0 °F 30.15 in Calm     77% 0.00 in 0 W/m2
19:42 52.1 °F 45.4 °F 30.15 in Calm     78% 0.00 in 0 W/m2
19:48 51.6 °F 46.0 °F 30.15 in Calm     81% 0.00 in 0 W/m2
19:54 51.3 °F 46.0 °F 30.15 in Calm     82% 0.00 in 0 W/m2
20:00 50.9 °F 45.9 °F 30.14 in Calm     83% 0.00 in 0 W/m2
20:06 50.5 °F 45.5 °F 30.15 in Calm     83% 0.00 in 0 W/m2
20:12 50.1 °F 45.1 °F 30.15 in Calm     83% 0.00 in 0 W/m2
20:18 49.7 °F 45.1 °F 30.15 in Calm     84% 0.00 in 0 W/m2
20:24 49.4 °F 45.1 °F 30.15 in Calm     85% 0.00 in 0 W/m2
20:30 49.1 °F 45.1 °F 30.15 in Calm     86% 0.00 in 0 W/m2
20:36 48.8 °F 44.8 °F 30.15 in Calm     86% 0.00 in 0 W/m2
20:42 48.4 °F 44.4 °F 30.16 in Calm     86% 0.00 in 0 W/m2
20:48 48.1 °F 44.1 °F 30.16 in Calm     86% 0.00 in 0 W/m2
20:54 47.7 °F 43.7 °F 30.16 in Calm     86% 0.00 in 0 W/m2
21:00 47.4 °F 43.4 °F 30.16 in Calm     86% 0.00 in 0 W/m2
21:06 47.2 °F 43.5 °F 30.16 in Calm     87% 0.00 in 0 W/m2
21:12 46.9 °F 43.2 °F 30.16 in Calm     87% 0.00 in 0 W/m2
21:18 46.7 °F 43.0 °F 30.17 in Calm     87% 0.00 in 0 W/m2
21:24 46.5 °F 42.8 °F 30.17 in Calm     87% 0.00 in 0 W/m2
21:30 46.8 °F 43.4 °F 30.17 in Calm     88% 0.00 in 0 W/m2
21:36 46.9 °F 43.8 °F 30.17 in Calm     89% 0.00 in 0 W/m2
21:42 46.8 °F 43.7 °F 30.17 in Calm     89% 0.00 in 0 W/m2
21:48 46.6 °F 43.5 °F 30.17 in Calm     89% 0.00 in 0 W/m2
21:54 46.4 °F 43.3 °F 30.17 in Calm     89% 0.00 in 0 W/m2
22:00 46.2 °F 43.1 °F 30.17 in Calm     89% 0.00 in 0 W/m2
22:06 46.3 °F 43.2 °F 30.17 in Calm     89% 0.00 in 0 W/m2
22:12 46.2 °F 43.1 °F 30.18 in Calm     89% 0.00 in 0 W/m2
22:18 46.0 °F 42.9 °F 30.18 in Calm     89% 0.00 in 0 W/m2
22:24 45.8 °F 42.7 °F 30.18 in Calm     89% 0.00 in 0 W/m2
22:30 45.7 °F 42.9 °F 30.18 in Calm     90% 0.00 in 0 W/m2
22:36 45.8 °F 43.0 °F 30.18 in Calm     90% 0.00 in 0 W/m2
22:42 45.9 °F 43.1 °F 30.18 in Calm     90% 0.00 in 0 W/m2
22:48 45.7 °F 42.9 °F 30.18 in Calm     90% 0.00 in 0 W/m2
22:54 45.5 °F 42.7 °F 30.18 in Calm     90% 0.00 in 0 W/m2
23:00 45.3 °F 42.5 °F 30.18 in Calm     90% 0.00 in 0 W/m2
23:06 45.2 °F 42.4 °F 30.18 in Calm     90% 0.00 in 0 W/m2
23:18 44.8 °F 42.3 °F 30.18 in Calm     91% 0.00 in 0 W/m2
23:24 44.8 °F 42.3 °F 30.18 in Calm     91% 0.00 in 0 W/m2
23:34 44.7 °F 42.2 °F 30.18 in Calm     91% 0.00 in 0 W/m2
23:36 44.7 °F 42.2 °F 30.18 in Calm     91% 0.00 in 0 W/m2
23:42 44.5 °F 42.0 °F 30.18 in Calm     91% 0.00 in 0 W/m2
23:48 44.5 °F 42.0 °F 30.18 in Calm     91% 0.00 in 0 W/m2
23:50 44.5 °F 42.0 °F 30.18 in Calm     91% 0.00 in 0 W/m2
23:54 44.6 °F 42.1 °F 30.18 in Calm     91% 0.00 in 0 W/m2
Country Meadow, Clay, NY, USA
Compliments of Weather Underground - 2 mb